createdAt,value
2018-11-03T00:02:24.912Z,8.90
2018-11-03T00:04:52.223Z,8.40
2018-11-03T00:07:19.472Z,9.83
2018-11-03T00:09:46.783Z,8.80
2018-11-03T00:12:13.996Z,9.50
2018-11-03T00:14:41.248Z,9.00
2018-11-03T00:17:08.533Z,8.97
2018-11-03T00:19:36.394Z,8.87
2018-11-03T00:22:03.677Z,8.70
2018-11-03T00:24:30.993Z,8.60
2018-11-03T00:26:58.267Z,9.97
2018-11-03T00:29:25.513Z,8.73
2018-11-03T00:31:52.868Z,10.20
2018-11-03T00:34:20.180Z,8.07
2018-11-03T00:36:47.407Z,9.23
2018-11-03T00:39:14.724Z,8.67
2018-11-03T00:41:42.157Z,9.23
2018-11-03T00:44:09.992Z,9.60
2018-11-03T00:46:37.375Z,8.87
2018-11-03T00:49:04.805Z,8.63
2018-11-03T00:51:32.421Z,8.30
2018-11-03T00:53:59.767Z,9.50
2018-11-03T00:56:26.989Z,8.43
2018-11-03T00:58:54.232Z,8.90
2018-11-03T01:01:21.457Z,9.53
2018-11-03T01:03:48.723Z,8.73
2018-11-03T01:06:15.982Z,9.03
2018-11-03T01:08:43.318Z,8.73
2018-11-03T01:11:10.600Z,8.07
2018-11-03T01:13:37.837Z,8.47
2018-11-03T01:16:05.300Z,8.43
2018-11-03T01:18:32.963Z,8.57
2018-11-03T01:21:00.200Z,8.83
2018-11-03T01:23:27.471Z,8.80
2018-11-03T01:25:54.757Z,8.67
2018-11-03T01:28:22.136Z,8.70
2018-11-03T01:30:49.652Z,8.70
2018-11-03T01:33:16.915Z,8.83
2018-11-03T01:35:44.187Z,9.00
2018-11-03T01:38:11.450Z,8.57
2018-11-03T01:40:38.679Z,9.30
2018-11-03T01:43:06.238Z,8.53
2018-11-03T01:45:34.039Z,8.63
2018-11-03T01:48:01.318Z,9.10
2018-11-03T01:50:28.534Z,8.73
2018-11-03T01:52:55.775Z,8.50
2018-11-03T01:55:23.325Z,8.67
2018-11-03T01:57:50.876Z,8.60
2018-11-03T02:00:18.159Z,8.93
2018-11-03T02:02:45.663Z,9.10
2018-11-03T02:05:12.958Z,8.30
2018-11-03T02:07:40.634Z,10.00
2018-11-03T02:10:08.565Z,9.63
2018-11-03T02:12:35.861Z,10.57
2018-11-03T02:15:03.112Z,10.23
2018-11-03T02:17:30.342Z,9.23
2018-11-03T02:19:57.607Z,9.33
2018-11-03T02:22:24.878Z,9.63
2018-11-03T02:24:52.122Z,9.43
2018-11-03T02:27:19.640Z,9.83
2018-11-03T02:29:46.907Z,9.70
2018-11-03T02:32:14.201Z,10.03
2018-11-03T02:34:41.451Z,9.83
2018-11-03T02:37:09.151Z,9.90
2018-11-03T02:39:36.380Z,10.33
2018-11-03T02:42:03.620Z,9.93
2018-11-03T02:44:30.934Z,9.87
2018-11-03T02:46:58.139Z,9.40
2018-11-03T02:49:25.350Z,9.70
2018-11-03T02:51:52.651Z,9.60
2018-11-03T02:54:19.910Z,10.10
2018-11-03T02:56:47.189Z,9.20
2018-11-03T02:59:14.447Z,10.07
2018-11-03T03:01:41.691Z,10.57
2018-11-03T03:04:08.952Z,9.67
2018-11-03T03:06:36.192Z,9.77
2018-11-03T03:09:03.435Z,9.80
2018-11-03T03:11:30.624Z,10.43
2018-11-03T03:13:57.903Z,10.40
2018-11-03T03:16:25.108Z,10.67
2018-11-03T03:18:52.375Z,11.63
2018-11-03T03:21:19.892Z,11.70
2018-11-03T03:23:47.190Z,11.17
2018-11-03T03:26:14.459Z,11.30
2018-11-03T03:28:41.767Z,10.67
2018-11-03T03:31:08.928Z,10.23
2018-11-03T03:33:36.421Z,11.07
2018-11-03T03:36:03.730Z,11.47
2018-11-03T03:38:31.303Z,11.50
2018-11-03T03:40:59.195Z,12.50
2018-11-03T03:43:26.427Z,12.43
2018-11-03T03:45:53.645Z,11.33
2018-11-03T03:48:21.136Z,12.70
2018-11-03T03:50:48.699Z,13.13
2018-11-03T03:53:16.056Z,12.63
2018-11-03T03:55:43.335Z,12.47
2018-11-03T03:58:10.598Z,12.93
2018-11-03T04:00:37.823Z,12.00
2018-11-03T04:03:05.112Z,13.87
2018-11-03T04:05:32.326Z,11.33
2018-11-03T04:07:59.614Z,12.17
2018-11-03T04:10:27.137Z,12.70
2018-11-03T04:12:54.343Z,13.67
2018-11-03T04:15:21.610Z,12.43
2018-11-03T04:17:48.849Z,12.57
2018-11-03T04:20:16.139Z,14.93
2018-11-03T04:22:43.371Z,14.83
2018-11-03T04:25:10.908Z,16.47
2018-11-03T04:27:38.167Z,14.67
2018-11-03T04:30:06.729Z,16.87
2018-11-03T04:32:34.032Z,15.40
2018-11-03T04:35:01.297Z,16.37
2018-11-03T04:37:28.525Z,17.07
2018-11-03T04:39:55.787Z,17.63
2018-11-03T04:42:23.083Z,18.23
2018-11-03T04:44:50.347Z,16.70
2018-11-03T04:47:17.879Z,16.87
2018-11-03T04:49:45.125Z,16.13
2018-11-03T04:52:12.661Z,17.17
2018-11-03T04:54:39.913Z,16.13
2018-11-03T04:57:07.195Z,17.30
2018-11-03T04:59:34.455Z,20.30
2018-11-03T05:02:01.995Z,17.30
2018-11-03T05:04:29.243Z,16.17
2018-11-03T05:06:56.499Z,17.50
2018-11-03T05:09:23.976Z,16.80
2018-11-03T05:11:51.303Z,17.90
2018-11-03T05:14:18.559Z,16.47
2018-11-03T05:16:45.783Z,16.83
2018-11-03T05:19:13.332Z,17.13
2018-11-03T05:21:40.547Z,16.23
2018-11-03T05:24:07.819Z,17.60
2018-11-03T05:26:35.355Z,16.77
2018-11-03T05:29:02.675Z,19.70
2018-11-03T05:31:29.917Z,18.83
2018-11-03T05:33:57.411Z,18.53
2018-11-03T05:36:24.667Z,19.63
2018-11-03T05:38:51.941Z,19.97
2018-11-03T05:41:19.195Z,18.87
2018-11-03T05:43:46.431Z,16.87
2018-11-03T05:46:13.722Z,16.57
2018-11-03T05:48:40.940Z,18.33
2018-11-03T05:51:08.176Z,17.50
2018-11-03T05:53:35.504Z,17.00
2018-11-03T05:56:03.021Z,20.13
2018-11-03T05:58:30.265Z,19.50
2018-11-03T06:00:57.515Z,21.20
2018-11-03T06:03:25.072Z,21.93
2018-11-03T06:05:52.580Z,18.87
2018-11-03T06:08:19.836Z,19.90
2018-11-03T06:10:47.138Z,18.20
2018-11-03T06:13:14.420Z,18.50
2018-11-03T06:15:41.734Z,17.47
2018-11-03T06:18:08.891Z,19.27
2018-11-03T06:20:36.098Z,19.40
2018-11-03T06:23:03.447Z,19.67
2018-11-03T06:25:30.647Z,20.43
2018-11-03T06:27:57.902Z,19.40
2018-11-03T06:30:25.111Z,20.50
2018-11-03T06:32:52.333Z,19.70
2018-11-03T06:35:19.739Z,20.90
2018-11-03T06:37:46.876Z,20.67
2018-11-03T06:40:14.125Z,19.97
2018-11-03T06:42:41.364Z,21.27
2018-11-03T06:45:09.191Z,20.27
2018-11-03T06:47:36.550Z,20.93
2018-11-03T06:50:04.429Z,20.97
2018-11-03T06:52:31.691Z,21.70
2018-11-03T06:54:59.280Z,20.70
2018-11-03T06:57:26.847Z,21.53
2018-11-03T06:59:54.351Z,21.40
2018-11-03T07:02:21.546Z,20.70
2018-11-03T07:04:48.933Z,20.43
2018-11-03T07:07:16.181Z,23.60
2018-11-03T07:09:43.463Z,21.77
2018-11-03T07:12:10.836Z,21.77
2018-11-03T07:14:37.999Z,22.77
2018-11-03T07:17:05.331Z,20.70
2018-11-03T07:19:32.567Z,21.67
2018-11-03T07:21:59.808Z,22.63
2018-11-03T07:24:27.079Z,22.10
2018-11-03T07:26:54.352Z,22.80
2018-11-03T07:29:21.662Z,23.17
2018-11-03T07:31:49.154Z,21.27
2018-11-03T07:34:16.657Z,22.73
2018-11-03T07:36:43.907Z,23.73
2018-11-03T07:39:11.573Z,21.40
2018-11-03T07:41:39.618Z,23.27
2018-11-03T07:44:07.767Z,22.13
2018-11-03T07:46:35.012Z,20.60
2018-11-03T07:49:02.269Z,21.83
2018-11-03T07:51:29.863Z,21.53
2018-11-03T07:53:57.102Z,22.53
2018-11-03T07:56:24.306Z,22.27
2018-11-03T07:58:51.571Z,21.90
2018-11-03T08:01:19.089Z,21.77
2018-11-03T08:03:46.316Z,22.03
2018-11-03T08:06:13.552Z,22.30
2018-11-03T08:08:41.070Z,22.10
2018-11-03T08:11:08.322Z,22.07
2018-11-03T08:13:36.232Z,22.80
2018-11-03T08:16:03.707Z,21.77
2018-11-03T08:18:30.954Z,22.07
2018-11-03T08:20:58.247Z,21.30
2018-11-03T08:23:25.476Z,20.70
2018-11-03T08:25:52.708Z,21.33
2018-11-03T08:28:20.271Z,20.03
2018-11-03T08:30:47.588Z,20.67
2018-11-03T08:33:14.834Z,22.37
2018-11-03T08:35:42.096Z,21.70
2018-11-03T08:38:09.345Z,21.87
2018-11-03T08:40:36.918Z,21.40
2018-11-03T08:43:04.360Z,21.73
2018-11-03T08:45:31.606Z,21.77
2018-11-03T08:47:58.904Z,20.30
2018-11-03T08:50:26.083Z,22.67
2018-11-03T08:52:53.321Z,22.43
2018-11-03T08:55:20.576Z,21.63
2018-11-03T08:57:47.843Z,20.93
2018-11-03T09:00:15.547Z,22.27
2018-11-03T09:02:43.047Z,21.87
2018-11-03T09:05:10.960Z,20.27
2018-11-03T09:07:38.834Z,21.10
2018-11-03T09:10:06.955Z,22.63
2018-11-03T09:12:34.083Z,24.57
2018-11-03T09:15:01.286Z,21.40
2018-11-03T09:17:28.346Z,19.70
2018-11-03T09:19:55.477Z,20.90
2018-11-03T09:22:22.668Z,21.57
2018-11-03T09:24:49.792Z,21.70
2018-11-03T09:27:16.922Z,21.10
2018-11-03T09:29:44.058Z,23.30
2018-11-03T09:32:11.246Z,20.33
2018-11-03T09:34:38.423Z,21.23
2018-11-03T09:37:05.730Z,20.43
2018-11-03T09:39:34.243Z,19.57
2018-11-03T09:42:01.736Z,18.20
2018-11-03T09:44:28.869Z,20.00
2018-11-03T09:46:57.243Z,18.80
2018-11-03T09:49:24.943Z,17.67
2018-11-03T09:51:52.236Z,17.03
2018-11-03T09:54:19.563Z,19.10
2018-11-03T09:56:47.268Z,16.47
2018-11-03T09:59:14.516Z,17.57
2018-11-03T10:01:41.851Z,15.50
2018-11-03T10:04:09.132Z,15.50
2018-11-03T10:06:36.469Z,14.33
2018-11-03T10:09:04.508Z,15.70
2018-11-03T10:11:31.783Z,16.13
2018-11-03T10:13:59.337Z,15.50
2018-11-03T10:16:26.707Z,15.40
2018-11-03T10:18:53.988Z,14.37
2018-11-03T10:21:21.258Z,14.97
2018-11-03T10:23:48.562Z,14.97
2018-11-03T10:26:15.819Z,14.37
2018-11-03T10:28:43.175Z,14.17
2018-11-03T10:31:10.479Z,11.60
2018-11-03T10:33:38.028Z,13.10
2018-11-03T10:36:05.457Z,11.07
2018-11-03T10:38:33.436Z,9.43
2018-11-03T10:41:00.724Z,10.17
2018-11-03T10:43:28.020Z,10.77
2018-11-03T10:45:55.297Z,11.87
2018-11-03T10:48:22.576Z,12.80
2018-11-03T10:50:50.100Z,12.60
2018-11-03T10:53:17.410Z,14.20
2018-11-03T10:55:44.667Z,13.17
2018-11-03T10:58:11.951Z,13.43
2018-11-03T11:00:44.622Z,12.40
2018-11-03T11:03:17.452Z,10.87
2018-11-03T11:05:50.408Z,6.80
2018-11-03T11:08:23.216Z,8.70
2018-11-03T11:10:55.844Z,9.10
2018-11-03T11:13:24.820Z,7.23
2018-11-03T11:15:53.464Z,5.80
2018-11-03T11:18:21.122Z,6.60
2018-11-03T11:20:48.421Z,2.83
2018-11-03T11:23:15.711Z,5.03
2018-11-03T11:25:42.933Z,2.90
2018-11-03T11:28:10.251Z,2.60
2018-11-03T11:30:39.231Z,3.10
2018-11-03T11:33:07.578Z,4.60
2018-11-03T11:35:34.912Z,3.50
2018-11-03T11:38:02.515Z,3.37
2018-11-03T11:40:29.791Z,4.50
2018-11-03T11:42:57.234Z,4.80
2018-11-03T11:45:24.475Z,4.60
2018-11-03T11:47:51.774Z,6.30
2018-11-03T11:50:19.452Z,5.03
2018-11-03T11:52:46.759Z,9.23
2018-11-03T11:55:14.090Z,6.07
2018-11-03T11:57:41.744Z,5.73
2018-11-03T12:00:09.092Z,6.23
2018-11-03T12:02:36.462Z,6.07
2018-11-03T12:05:03.704Z,5.87
2018-11-03T12:07:31.179Z,5.37
2018-11-03T12:09:59.132Z,6.70
2018-11-03T12:12:26.355Z,5.60
2018-11-03T12:14:53.594Z,5.33
2018-11-03T12:17:21.029Z,5.20
2018-11-03T12:19:48.311Z,5.57
2018-11-03T12:22:15.815Z,5.87
2018-11-03T12:24:43.099Z,20.33
2018-11-03T12:27:10.391Z,10.40
2018-11-03T12:29:37.684Z,8.37
2018-11-03T12:32:04.998Z,5.33
2018-11-03T12:34:32.639Z,4.50
2018-11-03T12:36:59.883Z,4.83
2018-11-03T12:39:27.153Z,4.67
2018-11-03T12:41:54.418Z,4.03
2018-11-03T12:44:22.028Z,4.40
2018-11-03T12:46:49.243Z,3.77
2018-11-03T12:49:16.527Z,4.43
2018-11-03T12:51:44.095Z,4.60
2018-11-03T12:54:11.374Z,7.43
2018-11-03T12:56:38.648Z,7.40
2018-11-03T12:59:05.996Z,5.03
2018-11-03T13:01:33.255Z,4.23
2018-11-03T13:04:00.834Z,4.93
2018-11-03T13:06:28.009Z,11.27
2018-11-03T13:08:55.363Z,18.23
2018-11-03T13:11:22.724Z,52.13
2018-11-03T13:13:50.209Z,7.10
2018-11-03T13:16:17.502Z,112.60
2018-11-03T13:18:44.744Z,23.40
2018-11-03T13:21:12.039Z,36.53
2018-11-03T13:23:39.627Z,25.67
2018-11-03T13:26:06.933Z,20.33
2018-11-03T13:28:34.184Z,2.90
2018-11-03T13:31:01.784Z,2.50
2018-11-03T13:33:29.044Z,2.70
2018-11-03T13:35:56.315Z,3.10
2018-11-03T13:38:23.936Z,40.33
2018-11-03T13:40:51.184Z,7.53
2018-11-03T13:43:18.430Z,8.57
2018-11-03T13:45:45.767Z,5.60
2018-11-03T13:48:13.027Z,4.93
2018-11-03T13:50:40.251Z,2.40
2018-11-03T13:53:07.544Z,2.93
2018-11-03T13:55:34.783Z,2.17
2018-11-03T13:58:02.032Z,2.40
2018-11-03T14:00:29.272Z,3.03
2018-11-03T14:02:56.595Z,2.20
2018-11-03T14:05:23.901Z,2.60
2018-11-03T14:07:51.207Z,2.30
2018-11-03T14:10:18.464Z,2.90
2018-11-03T14:12:46.409Z,2.30
2018-11-03T14:15:15.102Z,2.53
2018-11-03T14:17:42.346Z,3.17
2018-11-03T14:20:11.134Z,15.77
2018-11-03T14:22:38.410Z,5.93
2018-11-03T14:25:06.423Z,2.00
2018-11-03T14:27:34.015Z,2.37
2018-11-03T14:30:01.253Z,2.03
2018-11-03T14:32:28.532Z,2.10
2018-11-03T14:34:55.765Z,2.00
2018-11-03T14:37:23.032Z,1.90
2018-11-03T14:39:50.347Z,2.07
2018-11-03T14:42:17.612Z,1.90
2018-11-03T14:44:44.970Z,2.40
2018-11-03T14:47:12.156Z,3.50
2018-11-03T14:49:39.455Z,2.43
2018-11-03T14:52:06.719Z,1.70
2018-11-03T14:54:33.969Z,7.30
2018-11-03T14:57:01.354Z,9.37
2018-11-03T14:59:28.991Z,5.83
2018-11-03T15:01:56.264Z,1.93
2018-11-03T15:04:23.754Z,2.30
2018-11-03T15:06:50.980Z,1.90
2018-11-03T15:09:18.198Z,7.83
2018-11-03T15:11:46.026Z,10.70
2018-11-03T15:14:13.303Z,1.87
2018-11-03T15:16:40.613Z,1.83
2018-11-03T15:19:08.258Z,2.00
2018-11-03T15:21:35.837Z,23.77
2018-11-03T15:24:03.068Z,2.97
2018-11-03T15:26:30.280Z,1.90
2018-11-03T15:28:57.597Z,1.90
2018-11-03T15:31:24.957Z,2.37
2018-11-03T15:33:52.514Z,2.00
2018-11-03T15:36:29.520Z,2.00
2018-11-03T15:38:56.753Z,2.17
2018-11-03T15:41:24.014Z,1.90
2018-11-03T15:43:51.440Z,2.00
2018-11-03T15:46:18.652Z,2.10
2018-11-03T15:48:45.878Z,2.00
2018-11-03T15:51:13.095Z,1.87
2018-11-03T15:53:40.339Z,1.83
2018-11-03T15:56:07.555Z,2.03
2018-11-03T15:58:34.759Z,2.10
2018-11-03T16:01:01.971Z,2.50
2018-11-03T16:03:29.168Z,2.40
2018-11-03T16:05:57.352Z,2.27
2018-11-03T16:08:24.663Z,2.83
2018-11-03T16:10:51.956Z,2.70
2018-11-03T16:13:19.507Z,3.10
2018-11-03T16:15:46.776Z,3.43
2018-11-03T16:18:14.051Z,3.63
2018-11-03T16:20:41.307Z,3.77
2018-11-03T16:23:08.571Z,3.17
2018-11-03T16:25:35.824Z,2.97
2018-11-03T16:28:03.076Z,2.87
2018-11-03T16:30:30.345Z,2.90
2018-11-03T16:32:57.613Z,3.17
2018-11-03T16:35:24.943Z,2.97
2018-11-03T16:37:52.113Z,3.27
2018-11-03T16:40:19.439Z,3.47
2018-11-03T16:42:46.730Z,3.77
2018-11-03T16:45:15.260Z,3.17
2018-11-03T16:47:43.052Z,3.53
2018-11-03T16:50:11.589Z,3.00
2018-11-03T16:52:39.313Z,2.70
2018-11-03T16:55:06.953Z,3.17
2018-11-03T16:57:34.298Z,4.50
2018-11-03T17:00:01.576Z,5.67
2018-11-03T17:02:28.814Z,5.30
2018-11-03T17:04:56.080Z,4.93
2018-11-03T17:07:23.279Z,6.77
2018-11-03T17:09:50.525Z,6.80
2018-11-03T17:12:17.772Z,6.20
2018-11-03T17:14:44.962Z,6.47
2018-11-03T17:17:12.476Z,4.57
2018-11-03T17:19:39.807Z,5.10
2018-11-03T17:22:07.347Z,4.23
2018-11-03T17:24:34.643Z,4.17
2018-11-03T17:27:01.942Z,4.40
2018-11-03T17:29:29.284Z,4.10
2018-11-03T17:31:56.593Z,4.23
2018-11-03T17:34:23.880Z,3.97
2018-11-03T17:36:51.113Z,5.17
2018-11-03T17:39:18.421Z,5.20
2018-11-03T17:41:45.722Z,5.70
2018-11-03T17:44:13.365Z,6.03
2018-11-03T17:46:40.575Z,6.83
2018-11-03T17:49:07.909Z,5.63
2018-11-03T17:51:35.184Z,5.53
2018-11-03T17:54:02.425Z,4.87
2018-11-03T17:56:29.884Z,5.00
2018-11-03T17:58:57.255Z,4.80
2018-11-03T18:01:24.541Z,4.10
2018-11-03T18:03:51.496Z,4.60
2018-11-03T18:06:18.760Z,4.90
2018-11-03T18:08:45.833Z,6.17
2018-11-03T18:11:12.962Z,6.57
2018-11-03T18:13:40.093Z,7.20
2018-11-03T18:16:07.522Z,7.17
2018-11-03T18:18:34.668Z,7.17
2018-11-03T18:21:01.804Z,6.27
2018-11-03T18:23:29.032Z,6.30
2018-11-03T18:25:56.353Z,5.87
2018-11-03T18:28:23.669Z,5.90
2018-11-03T18:30:50.966Z,6.20
2018-11-03T18:33:18.256Z,6.30
2018-11-03T18:35:45.469Z,5.60
2018-11-03T18:38:12.664Z,5.87
2018-11-03T18:40:39.942Z,5.87
2018-11-03T18:43:07.244Z,5.23
2018-11-03T18:45:34.510Z,5.10
2018-11-03T18:48:01.756Z,5.10
2018-11-03T18:50:29.063Z,4.80
2018-11-03T18:52:56.752Z,4.67
2018-11-03T18:55:24.053Z,4.73
2018-11-03T18:57:51.398Z,4.87
2018-11-03T19:00:18.739Z,5.07
2018-11-03T19:02:45.991Z,5.53
2018-11-03T19:05:13.332Z,4.77
2018-11-03T19:07:40.614Z,5.27
2018-11-03T19:10:08.188Z,5.77
2018-11-03T19:12:35.411Z,5.43
2018-11-03T19:15:02.652Z,5.90
2018-11-03T19:17:29.944Z,5.77
2018-11-03T19:19:57.216Z,5.33
2018-11-03T19:22:24.472Z,5.23
2018-11-03T19:24:52.014Z,5.27
2018-11-03T19:27:19.397Z,5.30
2018-11-03T19:29:46.714Z,4.53
2018-11-03T19:32:14.006Z,4.40
2018-11-03T19:34:41.180Z,4.10
2018-11-03T19:37:08.449Z,4.93
2018-11-03T19:39:36.004Z,4.83
2018-11-03T19:42:03.255Z,4.67
2018-11-03T19:44:30.504Z,4.73
2018-11-03T19:46:57.727Z,4.43
2018-11-03T19:49:25.033Z,4.80
2018-11-03T19:51:52.449Z,5.17
2018-11-03T19:54:19.591Z,5.07
2018-11-03T19:56:46.939Z,4.83
2018-11-03T19:59:14.249Z,4.40
2018-11-03T20:01:41.535Z,4.70
2018-11-03T20:04:08.776Z,5.33
2018-11-03T20:06:36.022Z,5.03
2018-11-03T20:09:04.408Z,5.07
2018-11-03T20:11:31.719Z,5.20
2018-11-03T20:13:59.125Z,5.63
2018-11-03T20:16:26.335Z,5.70
2018-11-03T20:18:53.914Z,5.20
2018-11-03T20:21:21.155Z,5.80
2018-11-03T20:23:48.742Z,5.77
2018-11-03T20:26:16.268Z,5.10
2018-11-03T20:28:43.484Z,6.00
2018-11-03T20:31:11.042Z,5.80
2018-11-03T20:33:38.275Z,5.57
2018-11-03T20:36:05.615Z,5.90
2018-11-03T20:38:32.899Z,5.63
2018-11-03T20:41:00.146Z,5.93
2018-11-03T20:43:27.434Z,5.73
2018-11-03T20:45:54.691Z,6.70
2018-11-03T20:48:21.977Z,6.77
2018-11-03T20:50:53.524Z,6.57
2018-11-03T20:53:20.829Z,6.40
2018-11-03T20:55:48.125Z,6.87
2018-11-03T20:58:15.398Z,6.20
2018-11-03T21:00:42.669Z,6.47
2018-11-03T21:03:10.003Z,6.67
2018-11-03T21:05:37.277Z,6.77
2018-11-03T21:08:04.627Z,6.70
2018-11-03T21:10:31.875Z,6.80
2018-11-03T21:12:59.160Z,6.67
2018-11-03T21:15:26.404Z,7.10
2018-11-03T21:17:53.707Z,7.20
2018-11-03T21:20:20.997Z,7.70
2018-11-03T21:22:48.360Z,7.20
2018-11-03T21:25:15.640Z,7.70
2018-11-03T21:27:42.919Z,7.33
2018-11-03T21:30:10.882Z,7.47
2018-11-03T21:32:38.180Z,7.50
2018-11-03T21:35:05.442Z,7.87
2018-11-03T21:37:32.996Z,7.77
2018-11-03T21:40:00.268Z,6.77
2018-11-03T21:42:27.603Z,8.23
2018-11-03T21:44:54.876Z,7.67
2018-11-03T21:47:22.177Z,7.57
2018-11-03T21:49:49.464Z,8.13
2018-11-03T21:52:16.724Z,8.30
2018-11-03T21:54:44.026Z,8.20
2018-11-03T21:57:11.301Z,9.10
2018-11-03T21:59:38.577Z,9.00
2018-11-03T22:02:05.928Z,9.77
2018-11-03T22:04:33.189Z,9.50
2018-11-03T22:07:00.516Z,9.97
2018-11-03T22:09:27.797Z,9.53
2018-11-03T22:11:55.061Z,10.97
2018-11-03T22:14:22.414Z,9.77
2018-11-03T22:16:49.694Z,9.93
2018-11-03T22:19:16.960Z,9.90
2018-11-03T22:21:44.324Z,10.40
2018-11-03T22:24:12.044Z,10.37
2018-11-03T22:26:39.259Z,10.83
2018-11-03T22:29:06.588Z,11.40
2018-11-03T22:31:33.867Z,11.57
2018-11-03T22:34:01.149Z,11.70
2018-11-03T22:36:28.550Z,11.40
2018-11-03T22:38:56.128Z,11.77
2018-11-03T22:41:23.391Z,11.30
2018-11-03T22:43:50.708Z,11.07
2018-11-03T22:46:18.029Z,11.37
2018-11-03T22:48:45.364Z,11.60
2018-11-03T22:51:13.538Z,11.37
2018-11-03T22:53:40.831Z,12.20
2018-11-03T22:56:08.096Z,11.13
2018-11-03T22:58:35.426Z,12.10
2018-11-03T23:01:02.685Z,12.63
2018-11-03T23:03:29.969Z,13.03
2018-11-03T23:05:57.236Z,11.77
2018-11-03T23:08:24.514Z,12.07
2018-11-03T23:10:51.741Z,12.67
2018-11-03T23:13:18.990Z,12.53
2018-11-03T23:15:46.217Z,12.37
2018-11-03T23:18:13.700Z,12.60
2018-11-03T23:20:40.964Z,12.53
2018-11-03T23:23:08.254Z,12.93
2018-11-03T23:25:35.554Z,11.93
2018-11-03T23:28:02.918Z,13.00
2018-11-03T23:30:30.238Z,13.23
2018-11-03T23:32:57.468Z,11.73
2018-11-03T23:35:24.685Z,12.47
2018-11-03T23:37:51.932Z,13.30
2018-11-03T23:40:19.249Z,12.33
2018-11-03T23:42:46.473Z,12.73
2018-11-03T23:45:13.702Z,12.33
2018-11-03T23:47:40.936Z,13.13
2018-11-03T23:50:08.927Z,14.93
2018-11-03T23:52:36.205Z,12.87
2018-11-03T23:55:05.107Z,13.53
2018-11-03T23:57:32.501Z,13.83
2018-11-03T23:59:59.976Z,12.97
